createdAt,value
2023-05-25T00:01:01.708Z,95911.41
2023-05-25T00:06:06.003Z,95917.34
2023-05-25T00:11:08.544Z,95918.66
2023-05-25T00:16:11.168Z,95916.78
2023-05-25T00:21:15.289Z,95924.28
2023-05-25T00:26:17.679Z,95925.94
2023-05-25T00:31:21.467Z,95924.31
2023-05-25T00:36:24.411Z,95918.94
2023-05-25T00:41:27.473Z,95921.09
2023-05-25T00:46:30.283Z,95904.41
2023-05-25T00:51:34.336Z,95900.13
2023-05-25T00:56:36.826Z,95902.00
2023-05-25T01:01:40.250Z,95890.72
2023-05-25T01:06:43.298Z,95901.47
2023-05-25T01:11:45.684Z,95907.63
2023-05-25T01:16:48.238Z,95910.06
2023-05-25T01:21:50.644Z,95901.69
2023-05-25T01:26:55.754Z,95911.38
2023-05-25T01:31:58.470Z,95903.31
2023-05-25T01:37:01.289Z,95901.75
2023-05-25T01:42:04.258Z,95902.81
2023-05-25T01:47:06.652Z,95907.13
2023-05-25T01:52:09.922Z,95909.50
2023-05-25T01:57:12.585Z,95917.31
2023-05-25T02:02:15.959Z,95926.44
2023-05-25T02:07:18.356Z,95918.13
2023-05-25T02:12:20.722Z,95918.69
2023-05-25T02:17:23.128Z,95912.75
2023-05-25T02:22:25.830Z,95905.47
2023-05-25T02:27:28.220Z,95913.00
2023-05-25T02:32:31.287Z,95913.28
2023-05-25T02:37:33.895Z,95914.34
2023-05-25T02:42:36.259Z,95907.09
2023-05-25T02:47:38.709Z,95926.72
2023-05-25T02:52:41.101Z,95921.34
2023-05-25T02:57:43.510Z,95915.69
2023-05-25T03:02:46.667Z,95915.44
2023-05-25T03:07:49.141Z,95919.72
2023-05-25T03:12:51.503Z,95914.59
2023-05-25T03:17:56.806Z,95925.63
2023-05-25T03:22:59.262Z,95926.69
2023-05-25T03:28:01.608Z,95930.72
2023-05-25T03:33:04.262Z,95932.84
2023-05-25T03:38:06.666Z,95918.88
2023-05-25T03:43:09.035Z,95920.72
2023-05-25T03:48:11.656Z,95933.38
2023-05-25T03:53:14.097Z,95936.84
2023-05-25T03:58:18.440Z,95931.19
2023-05-25T04:03:21.760Z,95933.06
2023-05-25T04:08:24.989Z,95938.72
2023-05-25T04:13:27.374Z,95942.47
2023-05-25T04:18:29.698Z,95943.81
2023-05-25T04:23:33.890Z,95954.31
2023-05-25T04:28:37.018Z,95960.78
2023-05-25T04:33:40.970Z,95959.19
2023-05-25T04:38:47.960Z,95950.81
2023-05-25T04:44:05.953Z,95949.44
2023-05-25T04:49:10.658Z,95955.03
2023-05-25T04:54:13.036Z,95949.38
2023-05-25T04:59:15.591Z,95963.38
2023-05-25T05:04:18.237Z,95956.66
2023-05-25T05:09:20.581Z,95968.69
2023-05-25T05:14:22.954Z,95975.19
2023-05-25T05:19:25.698Z,95989.72
2023-05-25T05:24:28.163Z,95978.16
2023-05-25T05:29:30.516Z,95980.53
2023-05-25T05:34:32.847Z,95981.94
2023-05-25T05:39:35.197Z,95981.88
2023-05-25T05:44:37.620Z,95994.25
2023-05-25T05:49:40.152Z,95989.44
2023-05-25T05:54:42.565Z,95996.66
2023-05-25T05:59:44.965Z,95995.84
2023-05-25T06:04:47.333Z,95987.94
2023-05-25T06:09:49.644Z,95994.63
2023-05-25T06:14:52.194Z,95996.72
2023-05-25T06:19:54.610Z,95993.06
2023-05-25T06:24:57.538Z,95996.56
2023-05-25T06:29:59.866Z,96004.94
2023-05-25T06:35:02.288Z,96004.88
2023-05-25T06:40:05.159Z,96009.13
2023-05-25T06:45:07.508Z,96013.94
2023-05-25T06:50:09.985Z,96010.44
2023-05-25T06:55:12.316Z,96017.31
2023-05-25T07:00:14.735Z,96016.03
2023-05-25T07:05:17.238Z,96022.25
2023-05-25T07:10:19.646Z,96022.22
2023-05-25T07:15:22.818Z,96024.25
2023-05-25T07:20:25.279Z,96032.59
2023-05-25T07:25:27.698Z,96026.19
2023-05-25T07:30:30.005Z,96024.03
2023-05-25T07:35:34.192Z,96038.72
2023-05-25T07:40:36.630Z,96031.16
2023-05-25T07:45:39.022Z,96037.91
2023-05-25T07:50:41.446Z,96048.66
2023-05-25T07:55:43.952Z,96048.91
2023-05-25T08:00:46.741Z,96054.63
2023-05-25T08:05:49.072Z,96048.25
2023-05-25T08:10:51.570Z,96059.78
2023-05-25T08:15:53.883Z,96069.66
2023-05-25T08:20:56.356Z,96065.44
2023-05-25T08:25:58.821Z,96070.84
2023-05-25T08:31:01.331Z,96073.63
2023-05-25T08:36:04.022Z,96070.34
2023-05-25T08:41:06.507Z,96071.38
2023-05-25T08:46:08.884Z,96064.88
2023-05-25T08:51:11.955Z,96071.25
2023-05-25T08:56:14.589Z,96085.56
2023-05-25T09:01:16.928Z,96084.91
2023-05-25T09:06:19.357Z,96088.31
2023-05-25T09:11:36.121Z,96087.78
2023-05-25T09:16:40.246Z,96087.38
2023-05-25T09:21:43.732Z,96091.34
2023-05-25T09:26:48.867Z,96096.56
2023-05-25T09:31:51.343Z,96101.41
2023-05-25T09:36:53.876Z,96109.59
2023-05-25T09:41:56.495Z,96115.91
2023-05-25T09:46:58.859Z,96113.19
2023-05-25T09:52:01.202Z,96113.00
2023-05-25T09:57:03.661Z,96112.38
2023-05-25T10:02:06.224Z,96102.75
2023-05-25T10:07:08.595Z,96124.19
2023-05-25T10:12:10.977Z,96115.41
2023-05-25T10:17:13.466Z,96121.84
2023-05-25T10:22:16.331Z,96123.63
2023-05-25T10:27:27.088Z,96113.91
2023-05-25T10:32:30.308Z,96108.84
2023-05-25T10:37:32.677Z,96122.13
2023-05-25T10:42:36.909Z,96114.41
2023-05-25T10:47:41.964Z,96112.03
2023-05-25T10:52:44.518Z,96126.66
2023-05-25T10:57:46.905Z,96117.50
2023-05-25T11:02:49.308Z,96116.13
2023-05-25T11:07:51.718Z,96113.72
2023-05-25T11:12:54.073Z,96108.84
2023-05-25T11:17:56.490Z,96119.28
2023-05-25T11:22:58.882Z,96110.25
2023-05-25T11:28:01.237Z,96105.41
2023-05-25T11:33:03.806Z,96106.25
2023-05-25T11:38:06.266Z,96099.50
2023-05-25T11:43:09.134Z,96095.09
2023-05-25T11:48:12.066Z,96095.50
2023-05-25T11:53:15.554Z,96100.38
2023-05-25T11:58:18.162Z,96087.00
2023-05-25T12:03:21.083Z,96083.88
2023-05-25T12:08:23.732Z,96085.97
2023-05-25T12:13:26.628Z,96082.94
2023-05-25T12:18:29.271Z,96080.44
2023-05-25T12:23:31.695Z,96079.13
2023-05-25T12:28:34.287Z,96078.53
2023-05-25T12:33:37.035Z,96084.16
2023-05-25T12:38:39.739Z,96071.63
2023-05-25T12:43:43.966Z,96087.78
2023-05-25T12:48:46.715Z,96081.28
2023-05-25T12:53:49.232Z,96065.78
2023-05-25T12:58:51.700Z,96061.22
2023-05-25T13:03:54.524Z,96061.84
2023-05-25T13:08:56.851Z,96054.16
2023-05-25T13:13:59.287Z,96058.31
2023-05-25T13:19:01.760Z,96054.00
2023-05-25T13:24:04.113Z,96045.16
2023-05-25T13:29:06.487Z,96042.25
2023-05-25T13:34:08.821Z,96036.47
2023-05-25T13:39:13.582Z,96034.25
2023-05-25T13:44:17.785Z,96044.69
2023-05-25T13:49:20.391Z,96034.59
2023-05-25T13:54:23.555Z,96034.34
2023-05-25T13:59:26.021Z,96024.28
2023-05-25T14:04:28.792Z,96025.47
2023-05-25T14:09:31.814Z,96030.69
2023-05-25T14:14:34.161Z,96019.88
2023-05-25T14:19:36.500Z,96021.00
2023-05-25T14:24:38.920Z,96017.13
2023-05-25T14:29:41.944Z,96019.41
2023-05-25T14:34:44.761Z,96015.38
2023-05-25T14:39:47.662Z,96020.03
2023-05-25T14:44:50.035Z,96007.94
2023-05-25T14:49:52.415Z,96016.59
2023-05-25T14:54:54.784Z,96006.81
2023-05-25T14:59:57.412Z,96001.38
2023-05-25T15:05:00.221Z,96016.72
2023-05-25T15:10:03.065Z,96012.34
2023-05-25T15:15:05.760Z,96017.38
2023-05-25T15:20:08.573Z,96010.31
2023-05-25T15:25:12.561Z,96002.44
2023-05-25T15:30:19.618Z,96006.41
2023-05-25T15:35:22.441Z,96017.63
2023-05-25T15:40:25.146Z,96010.28
2023-05-25T15:45:27.944Z,96000.22
2023-05-25T15:50:30.681Z,96003.06
2023-05-25T15:55:33.479Z,96003.25
2023-05-25T16:00:36.225Z,95997.59
2023-05-25T16:05:38.813Z,95990.94
2023-05-25T16:10:41.536Z,95991.47
2023-05-25T16:15:44.577Z,96002.34
2023-05-25T17:32:32.210Z,96007.31
2023-05-25T17:37:34.596Z,96005.59
2023-05-25T17:42:36.909Z,96012.47
2023-05-25T17:47:40.551Z,96010.78
2023-05-25T17:52:43.458Z,96010.06
2023-05-25T17:57:48.364Z,96010.00
2023-05-25T18:02:51.968Z,96019.41
2023-05-25T18:07:54.507Z,96023.25
2023-05-25T18:12:56.923Z,96032.88
2023-05-25T18:18:00.623Z,96027.91
2023-05-25T18:23:03.337Z,96030.97
2023-05-25T18:28:05.804Z,96042.09
2023-05-25T18:33:09.815Z,96034.56
2023-05-25T18:38:12.298Z,96042.28
2023-05-25T18:43:14.644Z,96041.81
2023-05-25T18:48:18.916Z,96050.78
2023-05-25T18:53:21.542Z,96048.69
2023-05-25T18:58:24.076Z,96051.09
2023-05-25T19:03:26.552Z,96051.38
2023-05-25T19:08:29.204Z,96062.09
2023-05-25T19:13:31.651Z,96068.00
2023-05-25T19:18:34.080Z,96070.53
2023-05-25T19:23:37.115Z,96077.44
2023-05-25T19:28:39.501Z,96083.00
2023-05-25T19:33:42.206Z,96085.09
2023-05-25T19:38:44.625Z,96093.91
2023-05-25T19:43:47.088Z,96093.16
2023-05-25T19:48:49.536Z,96109.13
2023-05-25T19:53:52.070Z,96113.84
2023-05-25T19:58:54.521Z,96123.31
2023-05-25T20:03:56.916Z,96120.44
2023-05-25T20:08:59.266Z,96126.63
2023-05-25T20:14:01.691Z,96122.75
2023-05-25T20:19:07.457Z,96139.50
2023-05-25T20:24:10.033Z,96138.38
2023-05-25T20:29:12.356Z,96139.50
2023-05-25T20:34:14.885Z,96149.88
2023-05-25T20:39:17.221Z,96143.13
2023-05-25T20:44:19.612Z,96138.66
2023-05-25T20:49:24.366Z,96145.81
2023-05-25T20:54:28.391Z,96145.47
2023-05-25T20:59:31.682Z,96155.41
2023-05-25T21:04:34.328Z,96153.91
2023-05-25T21:09:36.959Z,96159.41
2023-05-25T21:14:39.520Z,96160.09
2023-05-25T21:19:41.844Z,96163.00
2023-05-25T21:24:44.274Z,96169.09
2023-05-25T21:29:46.836Z,96176.19
2023-05-25T21:34:49.812Z,96174.44
2023-05-25T21:39:52.218Z,96167.13
2023-05-25T21:44:54.630Z,96176.88
2023-05-25T21:49:57.246Z,96177.59
2023-05-25T21:54:59.895Z,96180.31
2023-05-25T22:00:02.232Z,96186.50
2023-05-25T22:05:04.707Z,96175.81
2023-05-25T22:10:07.121Z,96168.84
2023-05-25T22:15:09.583Z,96165.75
2023-05-25T22:20:12.248Z,96173.19
2023-05-25T22:25:14.931Z,96169.69
2023-05-25T22:30:17.756Z,96164.63
2023-05-25T22:35:20.229Z,96165.78
2023-05-25T22:40:22.652Z,96167.22
2023-05-25T22:45:25.223Z,96161.63
2023-05-25T22:50:28.114Z,96155.75
2023-05-25T22:55:30.577Z,96155.00
2023-05-25T23:00:33.020Z,96158.38
2023-05-25T23:05:35.450Z,96147.91
2023-05-25T23:10:38.311Z,96159.59
2023-05-25T23:15:40.924Z,96157.03
2023-05-25T23:20:43.914Z,96166.84
2023-05-25T23:25:47.316Z,96160.97
2023-05-25T23:30:50.327Z,96154.00
2023-05-25T23:35:53.095Z,96143.72
2023-05-25T23:40:55.899Z,96158.03
2023-05-25T23:45:58.744Z,96156.94
2023-05-25T23:51:01.389Z,96153.13
2023-05-25T23:56:04.408Z,96154.84
